Terminal Aerodrome Forecast
Issued by NWS

Home | Current Version | Previous Version | Text Only | Print | Product List | Glossary On
Versions: 1 2 3 4 5 6 7 8 9 10 11 12 13 14
399
FTUS45 KRIW 222333
TAFLND
TAF
KLND 222333Z 2300/2324 08007KT P6SM FEW110
     FM230300 23007KT P6SM SKC
     FM231500 13009KT P6SM VCSH SCT025 BKN080
     FM231800 04011KT P6SM SCT035 SCT070
     FM232100 04008KT 5SM -SHRA BKN035 OVC050=

USA.gov is the U.S. government's official web portal to all federal, state and local government web resources and services.